Time;durP1;ratioP1;P1;durP2;ratioP2;P2;SDS_P1;SDS_P2;PMS_P1;PMS_P2;Temp;Humidity;BMP_temperature;BMP_pressure;BME280_temperature;BME280_humidity;BME280_pressure;Samples;Min_cycle;Max_cycle;Signal;HPM_P1;HPM_P2
2021/07/22 00:00:23;;;;;;;;;;;512.80;2380.80;;;;;;5072931;28;20045;-80
2021/07/22 00:02:49;;;;;;;;;;;512.80;2380.80;;;;;;5073156;28;20363;-79
2021/07/22 00:05:15;;;;;;;;;;;512.80;2380.80;;;;;;5086399;28;19908;-84
2021/07/22 00:07:41;;;;;;;;;;;512.80;2380.80;;;;;;5073670;28;19904;-80
2021/07/22 00:10:06;;;;;;;;;;;512.80;2380.80;;;;;;5081951;28;20344;-84
2021/07/22 00:12:32;;;;;;;;;;;512.70;2380.80;;;;;;5084552;28;19908;-83
2021/07/22 00:14:58;;;;;;;;;;;512.60;2380.80;;;;;;5101679;28;19903;-78
2021/07/22 00:17:23;;;;;;;;;;;512.60;2380.80;;;;;;5098448;28;19954;-78
2021/07/22 00:19:49;;;;;;;;;;;512.60;2380.80;;;;;;5092772;28;19918;-76
2021/07/22 00:22:14;;;;;;;;;;;512.60;2380.80;;;;;;5092655;28;19908;-78
2021/07/22 00:24:40;;;;;;;;;;;512.50;2380.80;;;;;;5092716;28;19908;-74
2021/07/22 00:27:05;;;;;;;;;;;512.60;2380.80;;;;;;5094010;28;19905;-74
2021/07/22 00:29:34;;;;;;;;;;;512.50;2380.80;;;;;;5094580;28;19916;-74
2021/07/22 00:32:00;;;;;;;;;;;512.50;2380.80;;;;;;5092737;28;20413;-74
2021/07/22 00:34:26;;;;;;;;;;;512.50;2380.80;;;;;;5094606;28;19990;-74
2021/07/22 00:36:51;;;;;;;;;;;512.50;2380.80;;;;;;5096346;28;19904;-74
2021/07/22 00:39:18;;;;;;;;;;;512.50;2380.80;;;;;;5096126;28;19911;-74
2021/07/22 00:41:43;;;;;;;;;;;512.50;2380.80;;;;;;5096309;28;19954;-74
2021/07/22 00:44:09;;;;;;;;;;;512.50;2380.80;;;;;;5095961;28;20430;-74
2021/07/22 00:46:35;;;;;;;;;;;512.40;2380.80;;;;;;5096152;28;20293;-74
2021/07/22 00:49:00;;;;;;;;;;;512.40;2380.80;;;;;;5095894;28;19904;-74
2021/07/22 00:51:26;;;;;;;;;;;512.40;2380.80;;;;;;5096163;28;20358;-74
2021/07/22 00:53:51;;;;;;;;;;;512.30;2380.80;;;;;;5096618;28;20378;-74
2021/07/22 00:56:17;;;;;;;;;;;512.30;2380.80;;;;;;5095803;28;19908;-74
2021/07/22 00:58:42;;;;;;;;;;;512.20;2380.80;;;;;;5095815;28;19904;-74
2021/07/22 01:01:08;;;;;;;;;;;512.20;2380.80;;;;;;5095793;28;20099;-75
2021/07/22 01:03:38;;;;;;;;;;;512.20;2380.80;;;;;;5095828;28;20301;-74
2021/07/22 01:06:04;;;;;;;;;;;512.10;2380.80;;;;;;5095635;28;19907;-74
2021/07/22 01:08:30;;;;;;;;;;;512.10;2380.80;;;;;;5095776;28;19918;-74
2021/07/22 01:10:55;;;;;;;;;;;512.10;2380.80;;;;;;5095781;28;20251;-75
2021/07/22 01:13:21;;;;;;;;;;;512.00;2380.80;;;;;;5095546;28;19904;-74
2021/07/22 01:15:46;;;;;;;;;;;512.00;2380.80;;;;;;5095914;28;19911;-74
2021/07/22 01:18:12;;;;;;;;;;;487.30;2380.80;;;;;;5095310;28;20002;-75
2021/07/22 01:20:37;;;;;;;;;;;487.30;2380.80;;;;;;5095526;28;20309;-74
2021/07/22 01:23:03;;;;;;;;;;;512.00;2380.80;;;;;;5095332;28;19904;-75
2021/07/22 01:25:29;;;;;;;;;;;512.00;2380.80;;;;;;5095415;28;20281;-74
2021/07/22 01:27:55;;;;;;;;;;;512.00;2380.80;;;;;;5095547;28;20475;-77
2021/07/22 01:30:21;;;;;;;;;;;512.00;2380.80;;;;;;5095325;28;20367;-75
2021/07/22 01:32:47;;;;;;;;;;;487.30;2380.80;;;;;;5095310;28;19988;-75
2021/07/22 01:35:13;;;;;;;;;;;487.30;2380.80;;;;;;5095027;28;20285;-74
2021/07/22 01:37:39;;;;;;;;;;;487.30;2380.80;;;;;;5077094;28;20345;-74
2021/07/22 01:40:05;;;;;;;;;;;487.30;2380.80;;;;;;5094991;28;19911;-74
2021/07/22 01:42:31;;;;;;;;;;;487.30;2380.80;;;;;;5094944;28;19908;-74
2021/07/22 01:44:56;;;;;;;;;;;487.30;2380.80;;;;;;5094813;28;20388;-75
2021/07/22 01:47:22;;;;;;;;;;;487.30;2380.80;;;;;;5094926;28;19904;-75
2021/07/22 01:49:47;;;;;;;;;;;487.30;2380.80;;;;;;5094936;28;20373;-75
2021/07/22 01:52:13;;;;;;;;;;;487.30;2380.80;;;;;;5094736;28;19908;-75
2021/07/22 01:54:39;;;;;;;;;;;487.20;2380.80;;;;;;5094859;28;20434;-74
2021/07/22 01:57:04;;;;;;;;;;;487.20;2380.80;;;;;;5094578;28;19960;-75
2021/07/22 01:59:36;;;;;;;;;;;487.20;2380.80;;;;;;5094709;28;19957;-74
2021/07/22 02:02:05;;;;;;;;;;;487.30;2380.80;;;;;;5094752;28;20323;-75
2021/07/22 02:04:31;;;;;;;;;;;487.20;2380.80;;;;;;5094501;28;19965;-74
2021/07/22 02:06:56;;;;;;;;;;;487.20;2380.80;;;;;;5094658;28;20379;-75
2021/07/22 02:09:22;;;;;;;;;;;487.10;2380.80;;;;;;5094471;28;20381;-75
2021/07/22 02:11:48;;;;;;;;;;;487.20;2380.80;;;;;;5094512;28;19904;-74
2021/07/22 02:14:14;;;;;;;;;;;487.10;2380.80;;;;;;5094244;28;19919;-74
2021/07/22 02:16:40;;;;;;;;;;;487.00;2380.80;;;;;;5094428;28;19904;-74
2021/07/22 02:19:05;;;;;;;;;;;487.00;2380.80;;;;;;5094338;28;19904;-74
2021/07/22 02:21:31;;;;;;;;;;;487.00;2380.80;;;;;;5094116;28;19951;-74
2021/07/22 02:23:56;;;;;;;;;;;487.00;2380.80;;;;;;5094361;28;19911;-74
2021/07/22 02:26:22;;;;;;;;;;;487.00;2380.80;;;;;;5094256;28;19947;-74
2021/07/22 02:28:48;;;;;;;;;;;487.00;2380.80;;;;;;5093879;28;19915;-75
2021/07/22 02:31:13;;;;;;;;;;;487.00;2380.80;;;;;;5094263;28;19915;-74
2021/07/22 02:33:39;;;;;;;;;;;487.00;2380.80;;;;;;5093980;28;20266;-77
2021/07/22 02:36:04;;;;;;;;;;;487.00;2380.80;;;;;;5094635;28;19939;-81
2021/07/22 02:38:30;;;;;;;;;;;487.00;2380.80;;;;;;5094185;28;20344;-82
2021/07/22 02:40:55;;;;;;;;;;;486.90;2380.80;;;;;;5094685;28;19904;-83
2021/07/22 02:43:21;;;;;;;;;;;486.90;2380.80;;;;;;5094311;28;20400;-84
2021/07/22 02:45:46;;;;;;;;;;;486.90;2380.80;;;;;;5076106;28;19911;-84
2021/07/22 02:48:12;;;;;;;;;;;486.80;2380.80;;;;;;5076277;28;19911;-85
2021/07/22 02:50:38;;;;;;;;;;;486.80;2380.80;;;;;;5094044;28;20384;-85
2021/07/22 02:53:04;;;;;;;;;;;486.80;2380.80;;;;;;5094021;28;19908;-76
2021/07/22 02:55:29;;;;;;;;;;;486.80;2380.80;;;;;;5093710;28;19931;-75
2021/07/22 02:57:55;;;;;;;;;;;486.80;2380.80;;;;;;5093211;28;19911;-78
2021/07/22 03:00:21;;;;;;;;;;;486.70;2380.80;;;;;;5094119;28;19908;-81
2021/07/22 03:02:46;;;;;;;;;;;486.70;2380.80;;;;;;5093983;28;20281;-82
2021/07/22 03:05:12;;;;;;;;;;;486.50;2380.80;;;;;;5093612;28;20311;-74
2021/07/22 03:07:37;;;;;;;;;;;486.40;2380.80;;;;;;5093714;28;19950;-75
2021/07/22 03:10:03;;;;;;;;;;;486.40;2380.80;;;;;;5093865;28;20350;-78
2021/07/22 03:12:29;;;;;;;;;;;461.70;2380.80;;;;;;5093358;28;19951;-74
2021/07/22 03:14:54;;;;;;;;;;;461.70;2380.80;;;;;;5093446;28;19957;-74
2021/07/22 03:17:20;;;;;;;;;;;461.70;2380.80;;;;;;5093291;28;19910;-74
2021/07/22 03:19:45;;;;;;;;;;;461.70;2380.80;;;;;;5093069;28;19904;-75
2021/07/22 03:22:11;;;;;;;;;;;461.70;2380.80;;;;;;5093430;28;19994;-75
2021/07/22 03:24:37;;;;;;;;;;;461.60;2380.80;;;;;;5093122;28;19911;-74
2021/07/22 03:27:02;;;;;;;;;;;461.70;2380.80;;;;;;5093334;28;19904;-74
2021/07/22 03:29:28;;;;;;;;;;;461.70;2380.80;;;;;;5093086;28;19963;-74
2021/07/22 03:31:53;;;;;;;;;;;461.60;2380.80;;;;;;5093005;28;20282;-75
2021/07/22 03:34:19;;;;;;;;;;;461.70;2380.80;;;;;;5093487;28;19998;-75
2021/07/22 03:36:45;;;;;;;;;;;461.60;2380.80;;;;;;5093160;28;20041;-74
2021/07/22 03:39:11;;;;;;;;;;;461.60;2380.80;;;;;;5093413;28;19911;-74
2021/07/22 03:41:36;;;;;;;;;;;461.70;2380.80;;;;;;5093012;28;19973;-74
2021/07/22 03:44:02;;;;;;;;;;;461.60;2380.80;;;;;;5093131;28;19904;-74
2021/07/22 03:46:28;;;;;;;;;;;461.70;2380.80;;;;;;5092936;28;20363;-75
2021/07/22 03:48:53;;;;;;;;;;;461.70;2380.80;;;;;;5093152;28;19912;-75
2021/07/22 03:51:19;;;;;;;;;;;461.70;2380.80;;;;;;5093120;28;19999;-78
2021/07/22 03:53:44;;;;;;;;;;;461.70;2380.80;;;;;;5077744;28;20277;-76
2021/07/22 03:56:10;;;;;;;;;;;461.70;2380.80;;;;;;5097975;28;20304;-75
2021/07/22 03:58:35;;;;;;;;;;;461.70;2380.80;;;;;;5094159;28;19904;-74
2021/07/22 04:01:01;;;;;;;;;;;461.70;2380.80;;;;;;5092827;28;19935;-75
2021/07/22 04:03:26;;;;;;;;;;;461.50;2380.80;;;;;;5092935;28;19908;-75
2021/07/22 04:05:52;;;;;;;;;;;461.50;2380.80;;;;;;5092592;28;20462;-74
2021/07/22 04:08:18;;;;;;;;;;;461.40;2380.80;;;;;;5094537;28;19935;-74
2021/07/22 04:10:43;;;;;;;;;;;461.40;2380.80;;;;;;5096793;28;19911;-75
2021/07/22 04:13:09;;;;;;;;;;;461.50;2380.80;;;;;;5096830;28;20319;-74
2021/07/22 04:15:34;;;;;;;;;;;461.70;2380.80;;;;;;5078595;28;19914;-74
2021/07/22 04:18:00;;;;;;;;;;;461.70;2380.80;;;;;;5096505;28;20000;-74
2021/07/22 04:20:27;;;;;;;;;;;486.40;2380.80;;;;;;5096651;28;19903;-74
2021/07/22 04:22:56;;;;;;;;;;;486.40;2380.80;;;;;;5096637;28;19939;-74
2021/07/22 04:25:21;;;;;;;;;;;486.40;2380.80;;;;;;5096426;28;20052;-74
2021/07/22 04:27:47;;;;;;;;;;;486.50;2380.80;;;;;;5096547;28;20034;-74
2021/07/22 04:30:13;;;;;;;;;;;486.40;2380.80;;;;;;5096265;28;19937;-75
2021/07/22 04:32:38;;;;;;;;;;;486.50;2380.80;;;;;;5096817;28;19926;-74
2021/07/22 04:35:07;;;;;;;;;;;486.60;2380.80;;;;;;5096318;28;20254;-74
2021/07/22 04:37:33;;;;;;;;;;;486.60;2380.80;;;;;;5096675;28;20274;-74
2021/07/22 04:39:59;;;;;;;;;;;486.70;2380.80;;;;;;5096425;28;19908;-74
2021/07/22 04:42:24;;;;;;;;;;;486.70;2380.80;;;;;;5096094;28;19911;-74
2021/07/22 04:44:50;;;;;;;;;;;486.70;2380.80;;;;;;5096444;28;19914;-74
2021/07/22 04:47:15;;;;;;;;;;;486.80;2380.80;;;;;;5096102;28;19910;-75
2021/07/22 04:49:41;;;;;;;;;;;486.80;2380.80;;;;;;5096282;28;19926;-74
2021/07/22 04:52:06;;;;;;;;;;;486.80;2380.80;;;;;;5095927;28;19904;-74
2021/07/22 04:54:32;;;;;;;;;;;487.00;2380.80;;;;;;5096098;28;19908;-74
2021/07/22 04:56:57;;;;;;;;;;;487.00;2380.80;;;;;;5096047;28;19927;-74
2021/07/22 04:59:23;;;;;;;;;;;486.90;2380.80;;;;;;5095667;28;19904;-74
2021/07/22 05:01:48;;;;;;;;;;;487.00;2380.80;;;;;;5095988;28;19914;-74
2021/07/22 05:04:20;;;;;;;;;;;487.10;2380.80;;;;;;5095820;28;19915;-75
2021/07/22 05:06:45;;;;;;;;;;;487.20;2380.80;;;;;;5095752;28;19941;-74
2021/07/22 05:09:11;;;;;;;;;;;487.30;2380.80;;;;;;5095770;28;19908;-74
2021/07/22 05:11:36;;;;;;;;;;;487.30;2380.80;;;;;;5096016;28;19911;-78
2021/07/22 05:14:02;;;;;;;;;;;487.30;2380.80;;;;;;5095785;28;20278;-73
2021/07/22 05:16:28;;;;;;;;;;;487.30;2380.80;;;;;;5095783;28;19954;-77
2021/07/22 05:18:53;;;;;;;;;;;512.10;2380.80;;;;;;5095544;28;19904;-77
2021/07/22 05:21:19;;;;;;;;;;;512.10;2380.80;;;;;;5095442;28;19914;-79
2021/07/22 05:23:45;;;;;;;;;;;512.20;2380.80;;;;;;5095383;28;19955;-78
2021/07/22 05:26:11;;;;;;;;;;;512.30;2380.80;;;;;;5095601;28;19912;-79
2021/07/22 05:28:37;;;;;;;;;;;512.30;2380.80;;;;;;5095163;28;20441;-74
2021/07/22 05:31:06;;;;;;;;;;;512.40;2380.80;;;;;;5095442;28;19943;-75
2021/07/22 05:33:32;;;;;;;;;;;512.30;2380.80;;;;;;5095560;28;19904;-74
2021/07/22 05:36:05;;;;;;;;;;;512.40;2380.80;;;;;;5095442;28;19957;-74
2021/07/22 05:38:34;;;;;;;;;;;512.40;2380.80;;;;;;5095147;28;19973;-75
2021/07/22 05:41:00;;;;;;;;;;;512.50;2380.80;;;;;;5095371;28;19998;-75
2021/07/22 05:43:28;;;;;;;;;;;512.60;2380.80;;;;;;5095357;28;19999;-75
2021/07/22 05:45:54;;;;;;;;;;;512.70;2380.80;;;;;;5095199;28;19916;-75
2021/07/22 05:48:20;;;;;;;;;;;512.70;2380.80;;;;;;5095299;28;19962;-75
2021/07/22 05:50:46;;;;;;;;;;;512.90;2380.80;;;;;;5094941;28;19952;-78
2021/07/22 05:53:12;;;;;;;;;;;512.90;2380.80;;;;;;5095274;28;19904;-82
2021/07/22 05:55:37;;;;;;;;;;;537.60;2406.40;;;;;;5095076;28;19904;-81
2021/07/22 05:58:03;;;;;;;;;;;537.70;2406.40;;;;;;5095017;28;19935;-80
2021/07/22 06:00:28;;;;;;;;;;;537.70;2406.40;;;;;;5094787;28;20149;-80
2021/07/22 06:02:54;;;;;;;;;;;537.70;2406.40;;;;;;5094814;28;19908;-80
2021/07/22 06:05:19;;;;;;;;;;;537.80;2406.40;;;;;;5094829;28;19908;-80
2021/07/22 06:07:46;;;;;;;;;;;538.00;2406.40;;;;;;5086059;28;19905;-81
2021/07/22 06:10:14;;;;;;;;;;;538.00;2406.40;;;;;;5089674;28;20313;-80
2021/07/22 06:12:41;;;;;;;;;;;538.00;2406.40;;;;;;5087648;28;19915;-80
2021/07/22 06:15:07;;;;;;;;;;;538.10;2406.40;;;;;;5088134;28;19983;-76
2021/07/22 06:17:36;;;;;;;;;;;538.20;2406.40;;;;;;5089070;28;19904;-76
2021/07/22 06:20:05;;;;;;;;;;;538.30;2406.40;;;;;;5092160;28;19904;-76
2021/07/22 06:22:31;;;;;;;;;;;538.30;2406.40;;;;;;5094501;28;19904;-76
2021/07/22 06:24:56;;;;;;;;;;;538.40;2406.40;;;;;;5094220;28;20002;-75
2021/07/22 06:27:22;;;;;;;;;;;538.50;2406.40;;;;;;5094535;28;20354;-75
2021/07/22 06:29:48;;;;;;;;;;;563.20;2432.00;;;;;;5094223;28;19920;-76
2021/07/22 06:32:13;;;;;;;;;;;563.30;2432.00;;;;;;5093319;28;19904;-76
2021/07/22 06:34:39;;;;;;;;;;;563.40;2432.00;;;;;;5076421;28;19907;-75
2021/07/22 06:37:05;;;;;;;;;;;563.60;2432.00;;;;;;5094177;28;19957;-75
2021/07/22 06:39:32;;;;;;;;;;;563.60;2432.00;;;;;;5094050;28;19960;-75
2021/07/22 06:42:07;;;;;;;;;;;563.80;2432.00;;;;;;5094041;28;19949;-75
2021/07/22 06:44:32;;;;;;;;;;;563.90;2432.00;;;;;;5094202;28;19904;-75
2021/07/22 06:46:59;;;;;;;;;;;564.00;2432.00;;;;;;5094329;28;19961;-76
2021/07/22 06:49:24;;;;;;;;;;;564.10;2432.00;;;;;;5094006;28;19911;-75
2021/07/22 06:51:51;;;;;;;;;;;564.10;2432.00;;;;;;5094131;28;20348;-75
2021/07/22 06:54:20;;;;;;;;;;;588.80;2432.00;;;;;;5094130;28;19908;-75
2021/07/22 06:56:46;;;;;;;;;;;589.00;2432.00;;;;;;5093875;28;19903;-76
2021/07/22 06:59:12;;;;;;;;;;;589.20;2432.00;;;;;;5093585;28;19995;-76
2021/07/22 07:01:37;;;;;;;;;;;589.30;2432.00;;;;;;5093893;28;20445;-75
2021/07/22 07:04:03;;;;;;;;;;;589.50;2432.00;;;;;;5093989;28;19904;-77
2021/07/22 07:06:30;;;;;;;;;;;589.60;2432.00;;;;;;5094321;28;19957;-76
2021/07/22 07:08:55;;;;;;;;;;;589.70;2432.00;;;;;;5093919;28;19911;-75
2021/07/22 07:11:21;;;;;;;;;;;614.50;2432.00;;;;;;5093458;28;19904;-76
2021/07/22 07:13:46;;;;;;;;;;;614.50;2432.00;;;;;;5093658;28;19908;-77
2021/07/22 07:16:12;;;;;;;;;;;614.80;2432.00;;;;;;5093688;28;19952;-83
2021/07/22 07:18:37;;;;;;;;;;;614.80;2432.00;;;;;;5075520;28;19926;-84
2021/07/22 07:21:03;;;;;;;;;;;615.10;2432.00;;;;;;5095038;28;19904;-83
2021/07/22 07:23:29;;;;;;;;;;;615.20;2432.00;;;;;;5080610;28;19914;-76
2021/07/22 07:25:55;;;;;;;;;;;615.30;2432.00;;;;;;5094704;28;19908;-77
2021/07/22 07:28:20;;;;;;;;;;;640.00;2432.00;;;;;;5093465;28;19908;-80
2021/07/22 07:30:46;;;;;;;;;;;640.30;2432.00;;;;;;5093365;28;20398;-79
2021/07/22 07:33:11;;;;;;;;;;;640.60;2432.00;;;;;;5093464;28;19910;-76
2021/07/22 07:35:37;;;;;;;;;;;640.90;2432.00;;;;;;5093188;28;19904;-75
2021/07/22 07:38:03;;;;;;;;;;;665.70;2432.00;;;;;;5093598;28;19947;-77
2021/07/22 07:40:28;;;;;;;;;;;665.70;2432.00;;;;;;5093133;28;20398;-75
2021/07/22 07:42:54;;;;;;;;;;;665.80;2432.00;;;;;;5093020;28;19948;-76
2021/07/22 07:45:19;;;;;;;;;;;666.00;2432.00;;;;;;5093026;28;19969;-76
2021/07/22 07:47:48;;;;;;;;;;;666.20;2432.00;;;;;;5093557;28;19904;-77
2021/07/22 07:50:14;;;;;;;;;;;666.40;2432.00;;;;;;5093318;28;19927;-76
2021/07/22 07:52:39;;;;;;;;;;;691.30;2432.00;;;;;;5093245;28;20362;-76
2021/07/22 07:55:06;;;;;;;;;;;691.60;2432.00;;;;;;5093468;28;19926;-80
2021/07/22 07:57:32;;;;;;;;;;;691.70;2432.00;;;;;;5093087;28;19923;-81
2021/07/22 07:59:57;;;;;;;;;;;691.90;2432.00;;;;;;5093336;28;20278;-81
2021/07/22 08:02:23;;;;;;;;;;;692.10;2432.00;;;;;;5093224;28;19911;-82
2021/07/22 08:04:49;;;;;;;;;;;716.90;2432.00;;;;;;5093263;28;19919;-81
2021/07/22 08:07:14;;;;;;;;;;;717.00;2432.00;;;;;;5093254;28;20425;-80
2021/07/22 08:09:40;;;;;;;;;;;717.00;2432.00;;;;;;5093222;28;20315;-84
2021/07/22 08:12:05;;;;;;;;;;;717.20;2432.00;;;;;;5075092;28;19908;-87
2021/07/22 08:14:36;;;;;;;;;;;717.20;2432.00;;;;;;5074989;28;19905;-81
2021/07/22 08:17:02;;;;;;;;;;;717.50;2432.00;;;;;;5093602;28;19904;-80
2021/07/22 08:19:28;;;;;;;;;;;717.70;2432.00;;;;;;5093063;28;20350;-82
2021/07/22 08:21:53;;;;;;;;;;;742.50;2432.00;;;;;;5092882;28;19904;-82
2021/07/22 08:24:19;;;;;;;;;;;742.80;2432.00;;;;;;5092984;28;19930;-81
2021/07/22 08:26:44;;;;;;;;;;;743.00;2432.00;;;;;;5092823;28;20428;-77
2021/07/22 08:29:10;;;;;;;;;;;743.20;2432.00;;;;;;5092876;28;20270;-75
2021/07/22 08:31:37;;;;;;;;;;;768.00;2432.00;;;;;;5092712;28;19927;-76
2021/07/22 08:34:02;;;;;;;;;;;768.30;2380.80;;;;;;5092825;28;19904;-76
2021/07/22 08:36:28;;;;;;;;;;;768.70;2304.00;;;;;;5092901;28;19904;-76
2021/07/22 08:38:54;;;;;;;;;;;793.70;2304.00;;;;;;5092664;28;19904;-76
2021/07/22 08:41:19;;;;;;;;;;;794.30;2201.60;;;;;;5092934;28;19908;-78
2021/07/22 08:43:48;;;;;;;;;;;819.20;2176.00;;;;;;5092919;28;20384;-77
2021/07/22 08:46:14;;;;;;;;;;;794.20;2150.40;;;;;;5092698;28;19954;-78
2021/07/22 08:48:40;;;;;;;;;;;793.70;2176.00;;;;;;5092871;28;19908;-77
2021/07/22 08:51:05;;;;;;;;;;;768.90;2150.40;;;;;;5092732;28;19908;-76
2021/07/22 08:53:31;;;;;;;;;;;768.90;2176.00;;;;;;5092569;28;20373;-77
2021/07/22 08:56:00;;;;;;;;;;;768.70;2150.40;;;;;;5095103;28;19915;-76
2021/07/22 08:58:27;;;;;;;;;;;768.60;2176.00;;;;;;5096409;28;19911;-75
2021/07/22 09:00:54;;;;;;;;;;;768.40;2176.00;;;;;;5096045;28;20017;-77
2021/07/22 09:03:19;;;;;;;;;;;768.30;2176.00;;;;;;5096252;28;20400;-77
2021/07/22 09:05:45;;;;;;;;;;;768.20;2176.00;;;;;;5095980;28;19908;-77
2021/07/22 09:08:10;;;;;;;;;;;743.30;2227.20;;;;;;5096011;28;19904;-76
2021/07/22 09:10:36;;;;;;;;;;;743.20;2201.60;;;;;;5096026;28;19912;-76
2021/07/22 09:13:02;;;;;;;;;;;743.00;2227.20;;;;;;5095530;28;19926;-79
2021/07/22 09:15:33;;;;;;;;;;;742.90;2227.20;;;;;;5095942;28;19904;-82
2021/07/22 09:17:59;;;;;;;;;;;742.80;2252.80;;;;;;5095500;28;19908;-78
2021/07/22 09:20:32;;;;;;;;;;;742.60;2252.80;;;;;;5095997;28;19912;-78
2021/07/22 09:23:01;;;;;;;;;;;742.50;2252.80;;;;;;5095656;28;19904;-76
2021/07/22 09:25:46;;;;;;;;;;;742.40;2252.80;;;;;;5095488;28;19908;-75
2021/07/22 09:28:16;;;;;;;;;;;717.70;2252.80;;;;;;5095427;28;20345;-76
2021/07/22 09:31:01;;;;;;;;;;;717.70;2278.40;;;;;;5095345;28;19923;-76
2021/07/22 09:33:33;;;;;;;;;;;717.50;2252.80;;;;;;5095613;28;19904;-75
2021/07/22 09:35:58;;;;;;;;;;;717.50;2252.80;;;;;;5095451;28;19991;-75
2021/07/22 09:38:26;;;;;;;;;;;717.40;2201.60;;;;;;5095197;28;19935;-76
2021/07/22 09:40:52;;;;;;;;;;;717.40;2278.40;;;;;;5095270;28;19915;-75
2021/07/22 09:43:47;;;;;;;;;;;717.40;2278.40;;;;;;5095614;28;20304;-76
2021/07/22 09:46:14;;;;;;;;;;;717.20;2278.40;;;;;;5066629;28;19908;-75
2021/07/22 09:48:59;;;;;;;;;;;717.10;2278.40;;;;;;5076937;28;20293;-75
2021/07/22 09:51:34;;;;;;;;;;;717.00;2304.00;;;;;;5095010;28;19911;-76
2021/07/22 09:54:07;;;;;;;;;;;717.00;2304.00;;;;;;5095555;28;19912;-77
2021/07/22 09:56:36;;;;;;;;;;;717.00;2252.80;;;;;;5095292;28;19908;-75
2021/07/22 09:59:02;;;;;;;;;;;716.90;2227.20;;;;;;5095009;28;19943;-75
2021/07/22 10:01:27;;;;;;;;;;;717.10;2176.00;;;;;;5094872;28;20277;-75
2021/07/22 10:03:53;;;;;;;;;;;717.00;2201.60;;;;;;5094825;28;19908;-77
2021/07/22 10:06:19;;;;;;;;;;;717.00;2176.00;;;;;;5085043;28;19908;-75
2021/07/22 10:08:46;;;;;;;;;;;717.10;2176.00;;;;;;5094391;28;19929;-75
2021/07/22 10:11:11;;;;;;;;;;;717.00;2150.40;;;;;;5091471;28;19987;-79
2021/07/22 10:13:39;;;;;;;;;;;717.00;2201.60;;;;;;5091813;28;19935;-76
2021/07/22 10:16:07;;;;;;;;;;;717.00;2201.60;;;;;;5088721;28;19961;-74
2021/07/22 10:18:33;;;;;;;;;;;716.90;2201.60;;;;;;5080015;28;19915;-75
2021/07/22 10:20:59;;;;;;;;;;;717.00;2227.20;;;;;;5094335;28;19904;-74
2021/07/22 10:23:25;;;;;;;;;;;716.90;2252.80;;;;;;5094306;28;20310;-76
2021/07/22 10:25:52;;;;;;;;;;;716.90;2252.80;;;;;;5094146;28;19912;-75
2021/07/22 10:28:18;;;;;;;;;;;716.90;2227.20;;;;;;5094064;28;19949;-78
2021/07/22 10:30:48;;;;;;;;;;;716.80;2252.80;;;;;;5091470;28;19924;-79
2021/07/22 10:33:16;;;;;;;;;;;716.80;2201.60;;;;;;5088077;28;19947;-76
2021/07/22 10:35:42;;;;;;;;;;;716.80;2227.20;;;;;;5094090;28;19911;-75
2021/07/22 10:38:10;;;;;;;;;;;716.90;2252.80;;;;;;5093915;28;19904;-74
2021/07/22 10:40:44;;;;;;;;;;;716.80;2227.20;;;;;;5093663;28;19912;-75
2021/07/22 10:43:28;;;;;;;;;;;716.90;2252.80;;;;;;5085420;28;19934;-75
2021/07/22 10:45:55;;;;;;;;;;;716.80;2252.80;;;;;;5082487;28;20321;-75
2021/07/22 10:48:27;;;;;;;;;;;716.90;2201.60;;;;;;5088171;28;19956;-76
2021/07/22 10:50:53;;;;;;;;;;;716.90;2227.20;;;;;;5082806;28;19904;-75
2021/07/22 10:53:34;;;;;;;;;;;716.80;2227.20;;;;;;5088352;28;19926;-75
2021/07/22 10:55:59;;;;;;;;;;;716.80;2227.20;;;;;;5082649;28;19908;-75
2021/07/22 10:58:32;;;;;;;;;;;716.80;2176.00;;;;;;5087472;28;19911;-75
2021/07/22 11:00:57;;;;;;;;;;;716.80;2176.00;;;;;;5083569;28;19938;-74
2021/07/22 11:03:38;;;;;;;;;;;716.90;2150.40;;;;;;5086447;28;20483;-75
2021/07/22 11:06:10;;;;;;;;;;;716.80;2201.60;;;;;;5083226;28;19962;-74
2021/07/22 11:08:37;;;;;;;;;;;716.80;2227.20;;;;;;5087408;28;20368;-76
2021/07/22 11:11:03;;;;;;;;;;;716.80;2176.00;;;;;;5084852;28;19904;-74
2021/07/22 11:13:35;;;;;;;;;;;692.10;2201.60;;;;;;5085638;28;19904;-74
2021/07/22 11:16:02;;;;;;;;;;;716.80;2201.60;;;;;;5085727;28;19908;-74
2021/07/22 11:18:43;;;;;;;;;;;692.10;2176.00;;;;;;5085569;28;19908;-76
2021/07/22 11:21:12;;;;;;;;;;;716.80;2227.20;;;;;;5093255;28;19904;-74
2021/07/22 11:23:39;;;;;;;;;;;692.10;2201.60;;;;;;5092882;28;20391;-74
2021/07/22 11:26:04;;;;;;;;;;;692.10;2201.60;;;;;;5093331;28;19957;-76
2021/07/22 11:28:30;;;;;;;;;;;716.80;2227.20;;;;;;5093177;28;19908;-75
2021/07/22 11:30:59;;;;;;;;;;;692.10;2150.40;;;;;;5093014;28;19923;-75
2021/07/22 11:33:28;;;;;;;;;;;716.80;2201.60;;;;;;5093031;28;19908;-75
2021/07/22 11:35:54;;;;;;;;;;;716.80;2227.20;;;;;;5093205;28;19908;-75
2021/07/22 11:38:20;;;;;;;;;;;692.10;2201.60;;;;;;5093116;28;19908;-75
2021/07/22 11:40:45;;;;;;;;;;;716.80;2227.20;;;;;;5093133;28;19969;-74
2021/07/22 11:43:11;;;;;;;;;;;692.10;2201.60;;;;;;5093130;28;19903;-74
2021/07/22 11:45:44;;;;;;;;;;;716.80;2176.00;;;;;;5092761;28;19908;-75
2021/07/22 11:48:22;;;;;;;;;;;716.80;2201.60;;;;;;5093313;28;19908;-74
2021/07/22 11:50:57;;;;;;;;;;;716.80;2201.60;;;;;;5092788;28;19955;-74
2021/07/22 11:53:22;;;;;;;;;;;716.80;2176.00;;;;;;5093056;28;19904;-75
2021/07/22 11:55:48;;;;;;;;;;;716.90;2150.40;;;;;;5092986;28;19904;-75
2021/07/22 11:58:16;;;;;;;;;;;716.90;2176.00;;;;;;5093012;28;19947;-74
2021/07/22 12:00:42;;;;;;;;;;;716.80;2176.00;;;;;;5092798;28;19929;-75
2021/07/22 12:03:08;;;;;;;;;;;716.80;2227.20;;;;;;5093217;28;19926;-74
2021/07/22 12:05:33;;;;;;;;;;;716.80;2201.60;;;;;;5092760;28;19908;-75
2021/07/22 12:08:17;;;;;;;;;;;716.80;2227.20;;;;;;5092970;28;19908;-75
2021/07/22 12:10:43;;;;;;;;;;;716.80;2150.40;;;;;;5092998;28;19939;-75
2021/07/22 12:13:09;;;;;;;;;;;716.80;2201.60;;;;;;5092669;28;20325;-75
2021/07/22 12:15:38;;;;;;;;;;;716.80;2201.60;;;;;;5093138;28;19915;-75
2021/07/22 12:18:04;;;;;;;;;;;716.90;2201.60;;;;;;5092595;28;19904;-76
2021/07/22 12:20:30;;;;;;;;;;;716.80;2176.00;;;;;;5092807;28;19995;-75
2021/07/22 12:22:55;;;;;;;;;;;716.80;2176.00;;;;;;5092762;28;19949;-74
2021/07/22 12:25:21;;;;;;;;;;;716.80;2201.60;;;;;;5092406;28;19908;-74
2021/07/22 12:27:47;;;;;;;;;;;716.80;2176.00;;;;;;5092517;28;19907;-74
2021/07/22 12:30:12;;;;;;;;;;;716.80;2227.20;;;;;;5093905;28;20302;-74
2021/07/22 12:32:46;;;;;;;;;;;716.90;2176.00;;;;;;5096654;28;20255;-74
2021/07/22 12:35:26;;;;;;;;;;;716.90;2176.00;;;;;;5078102;28;20299;-78
2021/07/22 12:37:56;;;;;;;;;;;716.90;2201.60;;;;;;5096484;28;19904;-78
2021/07/22 12:40:30;;;;;;;;;;;716.80;2201.60;;;;;;5096537;28;19904;-80
2021/07/22 12:42:59;;;;;;;;;;;716.80;2201.60;;;;;;5096586;28;19904;-80
2021/07/22 12:45:25;;;;;;;;;;;716.80;2201.60;;;;;;5096509;28;19908;-80
2021/07/22 12:47:51;;;;;;;;;;;716.80;2201.60;;;;;;5096588;28;20277;-78
2021/07/22 12:50:34;;;;;;;;;;;716.80;2176.00;;;;;;5096197;28;19994;-78
2021/07/22 12:53:03;;;;;;;;;;;716.80;2176.00;;;;;;5096471;28;19919;-74
2021/07/22 12:55:39;;;;;;;;;;;716.80;2150.40;;;;;;5096312;28;19904;-75
2021/07/22 12:58:05;;;;;;;;;;;716.80;2227.20;;;;;;5095982;28;19904;-74
2021/07/22 13:00:41;;;;;;;;;;;716.80;2176.00;;;;;;5096057;28;19908;-77
2021/07/22 13:03:07;;;;;;;;;;;716.80;2201.60;;;;;;5096382;28;19904;-78
2021/07/22 13:05:32;;;;;;;;;;;692.10;2201.60;;;;;;5095943;28;19907;-77
2021/07/22 13:07:58;;;;;;;;;;;716.80;2176.00;;;;;;5095899;28;19911;-80
2021/07/22 13:10:24;;;;;;;;;;;716.80;2201.60;;;;;;5095891;28;19939;-74
2021/07/22 13:12:49;;;;;;;;;;;716.90;2201.60;;;;;;5095854;28;19954;-74
2021/07/22 13:15:18;;;;;;;;;;;716.90;2201.60;;;;;;5096136;28;20023;-74
2021/07/22 13:17:44;;;;;;;;;;;716.80;2201.60;;;;;;5095451;28;19904;-74
2021/07/22 13:20:11;;;;;;;;;;;716.80;2227.20;;;;;;5095467;28;19914;-77
2021/07/22 13:22:37;;;;;;;;;;;716.80;2201.60;;;;;;5095619;28;19911;-77
2021/07/22 13:25:03;;;;;;;;;;;716.90;2176.00;;;;;;5095327;28;19983;-73
2021/07/22 13:27:28;;;;;;;;;;;716.80;2201.60;;;;;;5095486;28;19911;-74
2021/07/22 13:29:54;;;;;;;;;;;716.80;2227.20;;;;;;5095143;28;19915;-74
2021/07/22 13:32:20;;;;;;;;;;;716.80;2176.00;;;;;;5095456;28;19949;-73
2021/07/22 13:34:45;;;;;;;;;;;716.80;2150.40;;;;;;5095295;28;19904;-74
2021/07/22 13:37:11;;;;;;;;;;;716.80;2176.00;;;;;;5095125;28;19918;-74
2021/07/22 13:39:37;;;;;;;;;;;716.80;2201.60;;;;;;5095170;28;19904;-74